sensor_id;sensor_type;location;lat;lon;timestamp;P1;durP1;ratioP1;P2;durP2;ratioP2
55172;SDS011;41061;52.822;6.860;2023-04-06T00:00:54;6.97;;;3.58;;
55172;SDS011;41061;52.822;6.860;2023-04-06T00:03:20;6.72;;;3.72;;
55172;SDS011;41061;52.822;6.860;2023-04-06T00:05:46;4.75;;;3.67;;
55172;SDS011;41061;52.822;6.860;2023-04-06T00:08:12;10.43;;;3.78;;
55172;SDS011;41061;52.822;6.860;2023-04-06T00:10:38;8.60;;;4.10;;
55172;SDS011;41061;52.822;6.860;2023-04-06T00:13:05;7.57;;;4.20;;
55172;SDS011;41061;52.822;6.860;2023-04-06T00:15:31;7.57;;;3.70;;
55172;SDS011;41061;52.822;6.860;2023-04-06T00:17:57;8.30;;;4.20;;
55172;SDS011;41061;52.822;6.860;2023-04-06T00:20:23;9.45;;;4.25;;
55172;SDS011;41061;52.822;6.860;2023-04-06T00:22:49;5.82;;;4.00;;
55172;SDS011;41061;52.822;6.860;2023-04-06T00:25:15;6.53;;;4.13;;
55172;SDS011;41061;52.822;6.860;2023-04-06T00:27:41;10.57;;;4.78;;
55172;SDS011;41061;52.822;6.860;2023-04-06T00:30:07;8.15;;;4.80;;
55172;SDS011;41061;52.822;6.860;2023-04-06T00:32:36;6.22;;;4.32;;
55172;SDS011;41061;52.822;6.860;2023-04-06T00:35:02;10.10;;;4.45;;
55172;SDS011;41061;52.822;6.860;2023-04-06T00:37:29;9.77;;;4.85;;
55172;SDS011;41061;52.822;6.860;2023-04-06T00:39:54;5.78;;;4.18;;
55172;SDS011;41061;52.822;6.860;2023-04-06T00:42:20;5.70;;;4.07;;
55172;SDS011;41061;52.822;6.860;2023-04-06T00:44:53;8.55;;;4.50;;
55172;SDS011;41061;52.822;6.860;2023-04-06T00:47:24;6.55;;;4.57;;
55172;SDS011;41061;52.822;6.860;2023-04-06T00:49:51;9.65;;;4.55;;
55172;SDS011;41061;52.822;6.860;2023-04-06T00:52:17;4.53;;;4.00;;
55172;SDS011;41061;52.822;6.860;2023-04-06T00:54:43;10.05;;;4.70;;
55172;SDS011;41061;52.822;6.860;2023-04-06T00:57:10;6.85;;;4.18;;
55172;SDS011;41061;52.822;6.860;2023-04-06T00:59:37;9.50;;;4.47;;
55172;SDS011;41061;52.822;6.860;2023-04-06T01:02:03;7.70;;;4.65;;
55172;SDS011;41061;52.822;6.860;2023-04-06T01:04:29;8.25;;;4.22;;
55172;SDS011;41061;52.822;6.860;2023-04-06T01:06:55;7.68;;;4.45;;
55172;SDS011;41061;52.822;6.860;2023-04-06T01:09:20;6.60;;;4.10;;
55172;SDS011;41061;52.822;6.860;2023-04-06T01:11:47;8.00;;;3.70;;
55172;SDS011;41061;52.822;6.860;2023-04-06T01:14:12;7.40;;;4.00;;
55172;SDS011;41061;52.822;6.860;2023-04-06T01:16:39;5.95;;;4.20;;
55172;SDS011;41061;52.822;6.860;2023-04-06T01:19:09;7.53;;;4.43;;
55172;SDS011;41061;52.822;6.860;2023-04-06T01:21:36;5.93;;;4.10;;
55172;SDS011;41061;52.822;6.860;2023-04-06T01:24:02;8.18;;;4.50;;
55172;SDS011;41061;52.822;6.860;2023-04-06T01:26:28;9.18;;;4.40;;
55172;SDS011;41061;52.822;6.860;2023-04-06T01:28:54;6.65;;;4.93;;
55172;SDS011;41061;52.822;6.860;2023-04-06T01:31:21;12.13;;;3.97;;
55172;SDS011;41061;52.822;6.860;2023-04-06T01:33:48;5.10;;;3.90;;
55172;SDS011;41061;52.822;6.860;2023-04-06T01:36:14;5.95;;;4.00;;
55172;SDS011;41061;52.822;6.860;2023-04-06T01:38:40;7.78;;;4.70;;
55172;SDS011;41061;52.822;6.860;2023-04-06T01:41:06;7.78;;;4.43;;
55172;SDS011;41061;52.822;6.860;2023-04-06T01:43:33;7.28;;;4.60;;
55172;SDS011;41061;52.822;6.860;2023-04-06T01:45:59;9.68;;;4.20;;
55172;SDS011;41061;52.822;6.860;2023-04-06T01:48:26;9.20;;;4.45;;
55172;SDS011;41061;52.822;6.860;2023-04-06T01:50:53;7.57;;;4.50;;
55172;SDS011;41061;52.822;6.860;2023-04-06T01:53:19;8.32;;;4.53;;
55172;SDS011;41061;52.822;6.860;2023-04-06T01:55:45;8.95;;;4.10;;
55172;SDS011;41061;52.822;6.860;2023-04-06T01:58:11;7.15;;;4.50;;
55172;SDS011;41061;52.822;6.860;2023-04-06T02:00:37;6.95;;;4.68;;
55172;SDS011;41061;52.822;6.860;2023-04-06T02:03:03;6.65;;;4.38;;
55172;SDS011;41061;52.822;6.860;2023-04-06T02:05:29;5.70;;;4.25;;
55172;SDS011;41061;52.822;6.860;2023-04-06T02:07:56;7.22;;;5.32;;
55172;SDS011;41061;52.822;6.860;2023-04-06T02:10:22;12.43;;;5.18;;
55172;SDS011;41061;52.822;6.860;2023-04-06T02:12:48;8.75;;;4.85;;
55172;SDS011;41061;52.822;6.860;2023-04-06T02:15:14;6.85;;;4.40;;
55172;SDS011;41061;52.822;6.860;2023-04-06T02:17:41;9.45;;;4.75;;
55172;SDS011;41061;52.822;6.860;2023-04-06T02:20:07;8.52;;;4.63;;
55172;SDS011;41061;52.822;6.860;2023-04-06T02:22:34;9.43;;;4.70;;
55172;SDS011;41061;52.822;6.860;2023-04-06T02:25:00;6.07;;;4.38;;
55172;SDS011;41061;52.822;6.860;2023-04-06T02:27:27;6.82;;;4.32;;
55172;SDS011;41061;52.822;6.860;2023-04-06T02:29:52;7.53;;;4.57;;
55172;SDS011;41061;52.822;6.860;2023-04-06T02:32:18;11.82;;;5.60;;
55172;SDS011;41061;52.822;6.860;2023-04-06T02:34:44;7.97;;;4.28;;
55172;SDS011;41061;52.822;6.860;2023-04-06T02:37:10;6.28;;;4.93;;
55172;SDS011;41061;52.822;6.860;2023-04-06T02:39:35;7.20;;;4.50;;
55172;SDS011;41061;52.822;6.860;2023-04-06T02:42:01;6.20;;;4.32;;
55172;SDS011;41061;52.822;6.860;2023-04-06T02:44:27;7.32;;;4.45;;
55172;SDS011;41061;52.822;6.860;2023-04-06T02:46:52;8.32;;;4.43;;
55172;SDS011;41061;52.822;6.860;2023-04-06T02:49:18;8.98;;;4.80;;
55172;SDS011;41061;52.822;6.860;2023-04-06T02:51:44;9.90;;;4.88;;
55172;SDS011;41061;52.822;6.860;2023-04-06T02:54:09;7.28;;;4.65;;
55172;SDS011;41061;52.822;6.860;2023-04-06T02:56:35;7.43;;;4.80;;
55172;SDS011;41061;52.822;6.860;2023-04-06T02:59:01;7.05;;;4.60;;
55172;SDS011;41061;52.822;6.860;2023-04-06T03:01:26;9.50;;;5.00;;
55172;SDS011;41061;52.822;6.860;2023-04-06T03:03:52;8.95;;;4.30;;
55172;SDS011;41061;52.822;6.860;2023-04-06T03:06:18;9.52;;;4.88;;
55172;SDS011;41061;52.822;6.860;2023-04-06T03:08:43;7.65;;;5.13;;
55172;SDS011;41061;52.822;6.860;2023-04-06T03:11:10;11.00;;;4.82;;
55172;SDS011;41061;52.822;6.860;2023-04-06T03:13:36;8.90;;;4.68;;
55172;SDS011;41061;52.822;6.860;2023-04-06T03:16:03;8.18;;;5.13;;
55172;SDS011;41061;52.822;6.860;2023-04-06T03:18:30;7.78;;;4.90;;
55172;SDS011;41061;52.822;6.860;2023-04-06T03:20:56;8.38;;;5.00;;
55172;SDS011;41061;52.822;6.860;2023-04-06T03:23:22;8.32;;;5.07;;
55172;SDS011;41061;52.822;6.860;2023-04-06T03:25:48;8.75;;;4.90;;
55172;SDS011;41061;52.822;6.860;2023-04-06T03:28:13;7.82;;;5.10;;
55172;SDS011;41061;52.822;6.860;2023-04-06T03:30:41;7.63;;;5.05;;
55172;SDS011;41061;52.822;6.860;2023-04-06T03:33:06;8.60;;;5.65;;
55172;SDS011;41061;52.822;6.860;2023-04-06T03:35:32;8.25;;;5.50;;
55172;SDS011;41061;52.822;6.860;2023-04-06T03:37:58;8.43;;;5.82;;
55172;SDS011;41061;52.822;6.860;2023-04-06T03:40:24;9.73;;;5.47;;
55172;SDS011;41061;52.822;6.860;2023-04-06T03:42:50;11.80;;;5.03;;
55172;SDS011;41061;52.822;6.860;2023-04-06T03:45:16;9.93;;;5.05;;
55172;SDS011;41061;52.822;6.860;2023-04-06T03:47:41;6.57;;;5.00;;
55172;SDS011;41061;52.822;6.860;2023-04-06T03:50:07;8.98;;;5.82;;
55172;SDS011;41061;52.822;6.860;2023-04-06T03:52:34;9.88;;;6.07;;
55172;SDS011;41061;52.822;6.860;2023-04-06T03:55:00;9.73;;;5.80;;
55172;SDS011;41061;52.822;6.860;2023-04-06T03:57:25;10.02;;;6.05;;
55172;SDS011;41061;52.822;6.860;2023-04-06T03:59:51;9.35;;;5.80;;
55172;SDS011;41061;52.822;6.860;2023-04-06T04:02:17;10.80;;;5.70;;
55172;SDS011;41061;52.822;6.860;2023-04-06T04:04:42;9.20;;;6.03;;
55172;SDS011;41061;52.822;6.860;2023-04-06T04:07:08;12.30;;;5.70;;
55172;SDS011;41061;52.822;6.860;2023-04-06T04:09:37;9.55;;;5.72;;
55172;SDS011;41061;52.822;6.860;2023-04-06T04:12:03;8.77;;;6.05;;
55172;SDS011;41061;52.822;6.860;2023-04-06T04:14:28;11.10;;;6.18;;
55172;SDS011;41061;52.822;6.860;2023-04-06T04:16:54;9.13;;;6.20;;
55172;SDS011;41061;52.822;6.860;2023-04-06T04:19:20;9.40;;;5.68;;
55172;SDS011;41061;52.822;6.860;2023-04-06T04:21:46;7.72;;;5.82;;
55172;SDS011;41061;52.822;6.860;2023-04-06T04:24:12;10.23;;;5.93;;
55172;SDS011;41061;52.822;6.860;2023-04-06T04:26:38;10.23;;;6.05;;
55172;SDS011;41061;52.822;6.860;2023-04-06T04:29:05;8.07;;;5.53;;
55172;SDS011;41061;52.822;6.860;2023-04-06T04:31:31;9.02;;;5.80;;
55172;SDS011;41061;52.822;6.860;2023-04-06T04:33:57;11.88;;;6.10;;
55172;SDS011;41061;52.822;6.860;2023-04-06T04:36:24;10.15;;;6.10;;
55172;SDS011;41061;52.822;6.860;2023-04-06T04:38:51;9.52;;;6.22;;
55172;SDS011;41061;52.822;6.860;2023-04-06T04:41:17;11.05;;;6.47;;
55172;SDS011;41061;52.822;6.860;2023-04-06T04:43:43;9.32;;;6.43;;
55172;SDS011;41061;52.822;6.860;2023-04-06T04:46:09;10.88;;;6.82;;
55172;SDS011;41061;52.822;6.860;2023-04-06T04:48:35;14.70;;;8.15;;
55172;SDS011;41061;52.822;6.860;2023-04-06T04:51:01;11.68;;;6.68;;
55172;SDS011;41061;52.822;6.860;2023-04-06T04:53:27;11.02;;;6.45;;
55172;SDS011;41061;52.822;6.860;2023-04-06T04:55:53;15.48;;;6.97;;
55172;SDS011;41061;52.822;6.860;2023-04-06T04:58:18;13.90;;;7.22;;
55172;SDS011;41061;52.822;6.860;2023-04-06T05:00:45;14.57;;;7.28;;
55172;SDS011;41061;52.822;6.860;2023-04-06T05:03:44;12.32;;;7.40;;
55172;SDS011;41061;52.822;6.860;2023-04-06T05:06:04;10.63;;;7.22;;
55172;SDS011;41061;52.822;6.860;2023-04-06T05:08:31;12.48;;;7.25;;
55172;SDS011;41061;52.822;6.860;2023-04-06T05:10:56;13.38;;;7.38;;
55172;SDS011;41061;52.822;6.860;2023-04-06T05:13:22;14.23;;;8.30;;
55172;SDS011;41061;52.822;6.860;2023-04-06T05:15:48;13.45;;;7.95;;
55172;SDS011;41061;52.822;6.860;2023-04-06T05:18:14;12.98;;;7.50;;
55172;SDS011;41061;52.822;6.860;2023-04-06T05:20:40;15.07;;;7.65;;
55172;SDS011;41061;52.822;6.860;2023-04-06T05:23:07;13.55;;;7.80;;
55172;SDS011;41061;52.822;6.860;2023-04-06T05:25:33;13.05;;;8.23;;
55172;SDS011;41061;52.822;6.860;2023-04-06T05:27:59;15.77;;;7.68;;
55172;SDS011;41061;52.822;6.860;2023-04-06T05:30:25;12.25;;;8.52;;
55172;SDS011;41061;52.822;6.860;2023-04-06T05:32:51;11.43;;;7.93;;
55172;SDS011;41061;52.822;6.860;2023-04-06T05:35:16;13.48;;;7.50;;
55172;SDS011;41061;52.822;6.860;2023-04-06T05:37:42;13.75;;;7.80;;
55172;SDS011;41061;52.822;6.860;2023-04-06T05:40:08;15.13;;;8.02;;
55172;SDS011;41061;52.822;6.860;2023-04-06T05:42:38;13.05;;;8.05;;
55172;SDS011;41061;52.822;6.860;2023-04-06T05:45:05;14.60;;;8.43;;
55172;SDS011;41061;52.822;6.860;2023-04-06T05:47:31;14.85;;;7.60;;
55172;SDS011;41061;52.822;6.860;2023-04-06T05:49:57;12.52;;;7.88;;
55172;SDS011;41061;52.822;6.860;2023-04-06T05:52:23;17.95;;;8.18;;
55172;SDS011;41061;52.822;6.860;2023-04-06T05:54:48;16.35;;;8.80;;
55172;SDS011;41061;52.822;6.860;2023-04-06T05:57:15;15.27;;;8.15;;
55172;SDS011;41061;52.822;6.860;2023-04-06T05:59:41;13.15;;;7.80;;
55172;SDS011;41061;52.822;6.860;2023-04-06T06:02:07;12.65;;;8.15;;
55172;SDS011;41061;52.822;6.860;2023-04-06T06:04:33;15.00;;;9.15;;
55172;SDS011;41061;52.822;6.860;2023-04-06T06:06:59;16.80;;;8.70;;
55172;SDS011;41061;52.822;6.860;2023-04-06T06:09:25;20.63;;;8.30;;
55172;SDS011;41061;52.822;6.860;2023-04-06T06:11:51;14.38;;;7.90;;
55172;SDS011;41061;52.822;6.860;2023-04-06T06:14:17;16.08;;;8.50;;
55172;SDS011;41061;52.822;6.860;2023-04-06T06:16:43;16.38;;;8.68;;
55172;SDS011;41061;52.822;6.860;2023-04-06T06:19:09;13.82;;;8.18;;
55172;SDS011;41061;52.822;6.860;2023-04-06T06:21:35;14.00;;;7.68;;
55172;SDS011;41061;52.822;6.860;2023-04-06T06:24:01;12.82;;;8.30;;
55172;SDS011;41061;52.822;6.860;2023-04-06T06:26:27;14.32;;;8.02;;
55172;SDS011;41061;52.822;6.860;2023-04-06T06:28:52;15.75;;;8.52;;
55172;SDS011;41061;52.822;6.860;2023-04-06T06:31:18;12.40;;;8.35;;
55172;SDS011;41061;52.822;6.860;2023-04-06T06:33:47;10.00;;;7.25;;
55172;SDS011;41061;52.822;6.860;2023-04-06T06:36:15;15.75;;;8.02;;
55172;SDS011;41061;52.822;6.860;2023-04-06T06:38:42;17.00;;;7.85;;
55172;SDS011;41061;52.822;6.860;2023-04-06T06:41:08;18.92;;;8.70;;
55172;SDS011;41061;52.822;6.860;2023-04-06T06:43:33;14.73;;;8.13;;
55172;SDS011;41061;52.822;6.860;2023-04-06T06:45:59;12.60;;;7.88;;
55172;SDS011;41061;52.822;6.860;2023-04-06T06:48:25;20.98;;;8.88;;
55172;SDS011;41061;52.822;6.860;2023-04-06T06:50:51;14.80;;;8.80;;
55172;SDS011;41061;52.822;6.860;2023-04-06T06:53:16;13.30;;;8.77;;
55172;SDS011;41061;52.822;6.860;2023-04-06T06:55:42;12.73;;;8.45;;
55172;SDS011;41061;52.822;6.860;2023-04-06T06:58:09;16.75;;;8.88;;
55172;SDS011;41061;52.822;6.860;2023-04-06T07:00:35;14.40;;;8.75;;
55172;SDS011;41061;52.822;6.860;2023-04-06T07:03:01;14.45;;;8.27;;
55172;SDS011;41061;52.822;6.860;2023-04-06T07:05:27;12.07;;;8.57;;
55172;SDS011;41061;52.822;6.860;2023-04-06T07:07:53;17.88;;;9.02;;
55172;SDS011;41061;52.822;6.860;2023-04-06T07:10:19;18.13;;;9.40;;
55172;SDS011;41061;52.822;6.860;2023-04-06T07:12:45;13.13;;;8.77;;
55172;SDS011;41061;52.822;6.860;2023-04-06T07:15:11;13.35;;;8.73;;
55172;SDS011;41061;52.822;6.860;2023-04-06T07:17:37;12.88;;;8.77;;
55172;SDS011;41061;52.822;6.860;2023-04-06T07:20:03;13.18;;;8.90;;
55172;SDS011;41061;52.822;6.860;2023-04-06T07:22:29;12.10;;;8.55;;
55172;SDS011;41061;52.822;6.860;2023-04-06T07:24:55;19.05;;;8.90;;
55172;SDS011;41061;52.822;6.860;2023-04-06T07:27:21;14.02;;;8.48;;
55172;SDS011;41061;52.822;6.860;2023-04-06T07:29:47;12.73;;;8.13;;
55172;SDS011;41061;52.822;6.860;2023-04-06T07:32:12;12.95;;;9.10;;
55172;SDS011;41061;52.822;6.860;2023-04-06T07:34:38;11.45;;;8.63;;
55172;SDS011;41061;52.822;6.860;2023-04-06T07:37:04;15.45;;;9.15;;
55172;SDS011;41061;52.822;6.860;2023-04-06T07:39:30;17.48;;;9.10;;
55172;SDS011;41061;52.822;6.860;2023-04-06T07:41:56;13.25;;;8.50;;
55172;SDS011;41061;52.822;6.860;2023-04-06T07:44:22;14.52;;;8.70;;
55172;SDS011;41061;52.822;6.860;2023-04-06T07:46:48;12.65;;;8.80;;
55172;SDS011;41061;52.822;6.860;2023-04-06T07:49:13;19.75;;;9.40;;
55172;SDS011;41061;52.822;6.860;2023-04-06T07:51:39;15.95;;;9.07;;
55172;SDS011;41061;52.822;6.860;2023-04-06T07:54:05;14.68;;;8.55;;
55172;SDS011;41061;52.822;6.860;2023-04-06T07:56:31;12.82;;;9.00;;
55172;SDS011;41061;52.822;6.860;2023-04-06T07:58:57;17.38;;;8.75;;
55172;SDS011;41061;52.822;6.860;2023-04-06T08:01:24;13.85;;;7.95;;
55172;SDS011;41061;52.822;6.860;2023-04-06T08:03:50;17.48;;;8.25;;
55172;SDS011;41061;52.822;6.860;2023-04-06T08:06:16;16.35;;;8.57;;
55172;SDS011;41061;52.822;6.860;2023-04-06T08:08:42;14.30;;;9.40;;
55172;SDS011;41061;52.822;6.860;2023-04-06T08:11:08;15.40;;;8.63;;
55172;SDS011;41061;52.822;6.860;2023-04-06T08:13:34;17.70;;;9.38;;
55172;SDS011;41061;52.822;6.860;2023-04-06T08:16:00;12.02;;;8.45;;
55172;SDS011;41061;52.822;6.860;2023-04-06T08:18:26;17.10;;;9.23;;
55172;SDS011;41061;52.822;6.860;2023-04-06T08:20:52;16.80;;;9.55;;
55172;SDS011;41061;52.822;6.860;2023-04-06T08:23:19;19.08;;;9.38;;
55172;SDS011;41061;52.822;6.860;2023-04-06T08:25:45;18.95;;;9.40;;
55172;SDS011;41061;52.822;6.860;2023-04-06T08:28:11;16.02;;;9.40;;
55172;SDS011;41061;52.822;6.860;2023-04-06T08:30:39;14.00;;;9.15;;
55172;SDS011;41061;52.822;6.860;2023-04-06T08:33:05;16.42;;;10.23;;
55172;SDS011;41061;52.822;6.860;2023-04-06T08:35:31;16.83;;;9.68;;
55172;SDS011;41061;52.822;6.860;2023-04-06T08:37:57;16.60;;;9.93;;
55172;SDS011;41061;52.822;6.860;2023-04-06T08:40:22;15.48;;;8.52;;
55172;SDS011;41061;52.822;6.860;2023-04-06T08:42:54;17.73;;;10.38;;
55172;SDS011;41061;52.822;6.860;2023-04-06T08:45:21;19.95;;;9.23;;
55172;SDS011;41061;52.822;6.860;2023-04-06T08:47:51;13.23;;;8.95;;
55172;SDS011;41061;52.822;6.860;2023-04-06T08:50:20;19.40;;;9.23;;
55172;SDS011;41061;52.822;6.860;2023-04-06T08:52:47;15.38;;;10.70;;
55172;SDS011;41061;52.822;6.860;2023-04-06T08:55:13;15.32;;;9.88;;
55172;SDS011;41061;52.822;6.860;2023-04-06T08:57:40;15.88;;;9.63;;
55172;SDS011;41061;52.822;6.860;2023-04-06T09:00:07;24.58;;;11.00;;
55172;SDS011;41061;52.822;6.860;2023-04-06T09:02:36;16.23;;;10.45;;
55172;SDS011;41061;52.822;6.860;2023-04-06T09:05:04;17.52;;;9.75;;
55172;SDS011;41061;52.822;6.860;2023-04-06T09:07:30;18.65;;;10.63;;
55172;SDS011;41061;52.822;6.860;2023-04-06T09:09:56;20.67;;;10.10;;
55172;SDS011;41061;52.822;6.860;2023-04-06T09:12:30;18.30;;;9.65;;
55172;SDS011;41061;52.822;6.860;2023-04-06T09:14:57;17.58;;;9.40;;
55172;SDS011;41061;52.822;6.860;2023-04-06T09:17:25;12.55;;;9.13;;
55172;SDS011;41061;52.822;6.860;2023-04-06T09:19:52;18.17;;;9.23;;
55172;SDS011;41061;52.822;6.860;2023-04-06T09:22:18;13.63;;;10.35;;
55172;SDS011;41061;52.822;6.860;2023-04-06T09:24:49;14.35;;;10.23;;
55172;SDS011;41061;52.822;6.860;2023-04-06T09:27:15;15.25;;;10.10;;
55172;SDS011;41061;52.822;6.860;2023-04-06T09:29:41;15.63;;;10.75;;
55172;SDS011;41061;52.822;6.860;2023-04-06T09:32:09;12.80;;;9.40;;
55172;SDS011;41061;52.822;6.860;2023-04-06T09:34:38;16.00;;;10.18;;
55172;SDS011;41061;52.822;6.860;2023-04-06T09:37:17;14.27;;;9.95;;
55172;SDS011;41061;52.822;6.860;2023-04-06T09:39:44;14.18;;;10.38;;
55172;SDS011;41061;52.822;6.860;2023-04-06T09:42:24;15.75;;;10.50;;
55172;SDS011;41061;52.822;6.860;2023-04-06T09:44:52;16.50;;;11.65;;
55172;SDS011;41061;52.822;6.860;2023-04-06T09:47:19;22.73;;;11.50;;
55172;SDS011;41061;52.822;6.860;2023-04-06T09:49:45;16.25;;;12.00;;
55172;SDS011;41061;52.822;6.860;2023-04-06T09:52:15;20.45;;;12.52;;
55172;SDS011;41061;52.822;6.860;2023-04-06T09:54:41;19.35;;;12.50;;
55172;SDS011;41061;52.822;6.860;2023-04-06T10:00:06;20.80;;;12.75;;
55172;SDS011;41061;52.822;6.860;2023-04-06T10:05:37;22.98;;;12.40;;
55172;SDS011;41061;52.822;6.860;2023-04-06T10:08:06;19.73;;;12.57;;
55172;SDS011;41061;52.822;6.860;2023-04-06T10:10:35;16.23;;;12.45;;
55172;SDS011;41061;52.822;6.860;2023-04-06T10:13:02;22.15;;;11.88;;
55172;SDS011;41061;52.822;6.860;2023-04-06T10:15:29;20.38;;;12.93;;
55172;SDS011;41061;52.822;6.860;2023-04-06T10:17:55;18.83;;;13.15;;
55172;SDS011;41061;52.822;6.860;2023-04-06T10:20:29;21.50;;;13.85;;
55172;SDS011;41061;52.822;6.860;2023-04-06T10:23:13;22.23;;;13.60;;
55172;SDS011;41061;52.822;6.860;2023-04-06T10:25:51;19.08;;;12.90;;
55172;SDS011;41061;52.822;6.860;2023-04-06T10:28:20;21.27;;;12.90;;
55172;SDS011;41061;52.822;6.860;2023-04-06T10:30:46;19.55;;;13.32;;
55172;SDS011;41061;52.822;6.860;2023-04-06T10:33:16;22.95;;;14.57;;
55172;SDS011;41061;52.822;6.860;2023-04-06T10:35:43;23.33;;;14.40;;
55172;SDS011;41061;52.822;6.860;2023-04-06T10:38:09;18.25;;;13.30;;
55172;SDS011;41061;52.822;6.860;2023-04-06T10:40:37;22.52;;;13.95;;
55172;SDS011;41061;52.822;6.860;2023-04-06T10:43:22;21.52;;;14.07;;
55172;SDS011;41061;52.822;6.860;2023-04-06T10:45:57;23.98;;;14.25;;
55172;SDS011;41061;52.822;6.860;2023-04-06T10:48:35;21.05;;;14.65;;
55172;SDS011;41061;52.822;6.860;2023-04-06T10:51:15;21.80;;;14.68;;
55172;SDS011;41061;52.822;6.860;2023-04-06T10:53:42;23.17;;;15.57;;
55172;SDS011;41061;52.822;6.860;2023-04-06T10:56:10;25.33;;;15.60;;
55172;SDS011;41061;52.822;6.860;2023-04-06T10:58:37;25.05;;;15.45;;
55172;SDS011;41061;52.822;6.860;2023-04-06T11:01:03;20.58;;;14.15;;
55172;SDS011;41061;52.822;6.860;2023-04-06T11:03:29;25.55;;;15.50;;
55172;SDS011;41061;52.822;6.860;2023-04-06T11:05:55;26.80;;;17.17;;
55172;SDS011;41061;52.822;6.860;2023-04-06T11:08:30;25.08;;;17.15;;
55172;SDS011;41061;52.822;6.860;2023-04-06T11:11:07;24.48;;;17.73;;
55172;SDS011;41061;52.822;6.860;2023-04-06T11:13:45;29.85;;;18.38;;
55172;SDS011;41061;52.822;6.860;2023-04-06T11:16:16;23.48;;;17.45;;
55172;SDS011;41061;52.822;6.860;2023-04-06T11:18:49;32.70;;;19.52;;
55172;SDS011;41061;52.822;6.860;2023-04-06T11:21:16;24.88;;;18.63;;
55172;SDS011;41061;52.822;6.860;2023-04-06T11:23:42;29.60;;;18.73;;
55172;SDS011;41061;52.822;6.860;2023-04-06T11:26:12;29.42;;;19.15;;
55172;SDS011;41061;52.822;6.860;2023-04-06T11:28:39;29.73;;;19.63;;
55172;SDS011;41061;52.822;6.860;2023-04-06T11:31:07;24.88;;;17.42;;
55172;SDS011;41061;52.822;6.860;2023-04-06T11:33:37;31.33;;;17.05;;
55172;SDS011;41061;52.822;6.860;2023-04-06T11:36:04;25.48;;;17.50;;
55172;SDS011;41061;52.822;6.860;2023-04-06T11:38:30;27.92;;;17.27;;
55172;SDS011;41061;52.822;6.860;2023-04-06T11:40:56;23.02;;;17.55;;
55172;SDS011;41061;52.822;6.860;2023-04-06T11:43:29;27.67;;;18.02;;
55172;SDS011;41061;52.822;6.860;2023-04-06T11:46:02;24.80;;;17.48;;
55172;SDS011;41061;52.822;6.860;2023-04-06T11:48:29;25.00;;;17.52;;
55172;SDS011;41061;52.822;6.860;2023-04-06T11:50:56;26.25;;;18.30;;
55172;SDS011;41061;52.822;6.860;2023-04-06T11:53:23;24.38;;;18.85;;
55172;SDS011;41061;52.822;6.860;2023-04-06T11:55:49;27.17;;;18.75;;
55172;SDS011;41061;52.822;6.860;2023-04-06T11:58:14;27.27;;;19.25;;
55172;SDS011;41061;52.822;6.860;2023-04-06T12:00:40;25.40;;;18.35;;
55172;SDS011;41061;52.822;6.860;2023-04-06T12:03:10;27.40;;;18.70;;
55172;SDS011;41061;52.822;6.860;2023-04-06T12:05:37;28.50;;;17.80;;
55172;SDS011;41061;52.822;6.860;2023-04-06T12:08:02;26.58;;;19.10;;
55172;SDS011;41061;52.822;6.860;2023-04-06T12:10:29;35.75;;;20.70;;
55172;SDS011;41061;52.822;6.860;2023-04-06T12:12:54;30.80;;;20.02;;
55172;SDS011;41061;52.822;6.860;2023-04-06T12:15:20;27.45;;;18.30;;
55172;SDS011;41061;52.822;6.860;2023-04-06T12:17:46;26.45;;;18.00;;
55172;SDS011;41061;52.822;6.860;2023-04-06T12:20:12;28.98;;;19.65;;
55172;SDS011;41061;52.822;6.860;2023-04-06T12:22:39;27.65;;;20.08;;
55172;SDS011;41061;52.822;6.860;2023-04-06T12:25:05;29.75;;;19.58;;
55172;SDS011;41061;52.822;6.860;2023-04-06T12:27:32;27.67;;;20.35;;
55172;SDS011;41061;52.822;6.860;2023-04-06T12:29:58;28.85;;;20.45;;
55172;SDS011;41061;52.822;6.860;2023-04-06T12:32:24;29.02;;;19.45;;
55172;SDS011;41061;52.822;6.860;2023-04-06T12:34:52;29.02;;;20.08;;
55172;SDS011;41061;52.822;6.860;2023-04-06T12:37:18;31.75;;;20.17;;
55172;SDS011;41061;52.822;6.860;2023-04-06T12:39:45;31.17;;;19.80;;
55172;SDS011;41061;52.822;6.860;2023-04-06T12:42:11;28.27;;;17.50;;
55172;SDS011;41061;52.822;6.860;2023-04-06T12:44:37;31.13;;;20.23;;
55172;SDS011;41061;52.822;6.860;2023-04-06T12:47:03;27.08;;;19.55;;
55172;SDS011;41061;52.822;6.860;2023-04-06T12:49:30;30.85;;;19.60;;
55172;SDS011;41061;52.822;6.860;2023-04-06T12:51:56;27.98;;;19.27;;
55172;SDS011;41061;52.822;6.860;2023-04-06T12:54:22;27.88;;;19.95;;
55172;SDS011;41061;52.822;6.860;2023-04-06T12:56:48;28.88;;;19.38;;
55172;SDS011;41061;52.822;6.860;2023-04-06T12:59:13;28.70;;;18.70;;
55172;SDS011;41061;52.822;6.860;2023-04-06T13:01:39;31.45;;;18.98;;
55172;SDS011;41061;52.822;6.860;2023-04-06T13:04:05;28.63;;;19.02;;
55172;SDS011;41061;52.822;6.860;2023-04-06T13:06:31;26.20;;;17.33;;
55172;SDS011;41061;52.822;6.860;2023-04-06T13:08:57;33.83;;;19.50;;
55172;SDS011;41061;52.822;6.860;2023-04-06T13:11:22;27.23;;;19.45;;
55172;SDS011;41061;52.822;6.860;2023-04-06T13:13:49;29.20;;;19.15;;
55172;SDS011;41061;52.822;6.860;2023-04-06T13:16:15;27.48;;;18.85;;
55172;SDS011;41061;52.822;6.860;2023-04-06T13:18:41;26.38;;;18.70;;
55172;SDS011;41061;52.822;6.860;2023-04-06T13:21:07;25.63;;;18.83;;
55172;SDS011;41061;52.822;6.860;2023-04-06T13:23:33;32.20;;;19.48;;
55172;SDS011;41061;52.822;6.860;2023-04-06T13:26:04;31.98;;;19.77;;
55172;SDS011;41061;52.822;6.860;2023-04-06T13:28:31;28.50;;;20.05;;
55172;SDS011;41061;52.822;6.860;2023-04-06T13:30:58;27.00;;;19.70;;
55172;SDS011;41061;52.822;6.860;2023-04-06T13:33:25;29.17;;;18.70;;
55172;SDS011;41061;52.822;6.860;2023-04-06T13:35:51;29.92;;;19.65;;
55172;SDS011;41061;52.822;6.860;2023-04-06T13:38:17;25.42;;;18.85;;
55172;SDS011;41061;52.822;6.860;2023-04-06T13:40:43;26.13;;;18.73;;
55172;SDS011;41061;52.822;6.860;2023-04-06T13:43:09;26.75;;;19.83;;
55172;SDS011;41061;52.822;6.860;2023-04-06T13:45:36;26.88;;;18.20;;
55172;SDS011;41061;52.822;6.860;2023-04-06T13:48:02;24.77;;;17.75;;
55172;SDS011;41061;52.822;6.860;2023-04-06T13:50:28;23.08;;;16.77;;
55172;SDS011;41061;52.822;6.860;2023-04-06T13:52:54;26.20;;;17.02;;
55172;SDS011;41061;52.822;6.860;2023-04-06T13:55:21;27.92;;;17.38;;
55172;SDS011;41061;52.822;6.860;2023-04-06T13:57:49;21.95;;;16.00;;
55172;SDS011;41061;52.822;6.860;2023-04-06T14:00:15;26.00;;;17.13;;
55172;SDS011;41061;52.822;6.860;2023-04-06T14:02:41;27.45;;;18.58;;
55172;SDS011;41061;52.822;6.860;2023-04-06T14:05:07;25.33;;;16.95;;
55172;SDS011;41061;52.822;6.860;2023-04-06T14:07:33;24.80;;;17.60;;
55172;SDS011;41061;52.822;6.860;2023-04-06T14:09:59;25.27;;;17.75;;
55172;SDS011;41061;52.822;6.860;2023-04-06T14:12:25;26.10;;;18.80;;
55172;SDS011;41061;52.822;6.860;2023-04-06T14:14:52;24.92;;;17.95;;
55172;SDS011;41061;52.822;6.860;2023-04-06T14:17:17;27.40;;;17.50;;
55172;SDS011;41061;52.822;6.860;2023-04-06T14:19:43;25.10;;;17.40;;
55172;SDS011;41061;52.822;6.860;2023-04-06T14:22:09;28.52;;;18.58;;
55172;SDS011;41061;52.822;6.860;2023-04-06T14:24:35;24.17;;;18.02;;
55172;SDS011;41061;52.822;6.860;2023-04-06T14:27:01;28.30;;;17.40;;
55172;SDS011;41061;52.822;6.860;2023-04-06T14:29:27;25.48;;;18.02;;
55172;SDS011;41061;52.822;6.860;2023-04-06T14:31:53;23.52;;;17.95;;
55172;SDS011;41061;52.822;6.860;2023-04-06T14:34:28;24.75;;;18.02;;
55172;SDS011;41061;52.822;6.860;2023-04-06T14:36:54;29.35;;;17.58;;